sensor_id;sensor_type;location;lat;lon;timestamp;temperature;humidity
5972;DHT22;3012;49.944;8.454;2024-02-15T00:00:24;10.00;99.90
5972;DHT22;3012;49.944;8.454;2024-02-15T00:02:54;10.20;99.90
5972;DHT22;3012;49.944;8.454;2024-02-15T00:05:25;10.10;99.90
5972;DHT22;3012;49.944;8.454;2024-02-15T00:07:53;10.20;99.90
5972;DHT22;3012;49.944;8.454;2024-02-15T00:10:21;10.10;99.90
5972;DHT22;3012;49.944;8.454;2024-02-15T00:12:52;10.10;99.90
5972;DHT22;3012;49.944;8.454;2024-02-15T00:15:21;9.80;99.90
5972;DHT22;3012;49.944;8.454;2024-02-15T00:17:50;10.00;99.90
5972;DHT22;3012;49.944;8.454;2024-02-15T00:20:19;10.10;99.90
5972;DHT22;3012;49.944;8.454;2024-02-15T00:22:47;9.90;99.90
5972;DHT22;3012;49.944;8.454;2024-02-15T00:25:16;10.00;99.90
5972;DHT22;3012;49.944;8.454;2024-02-15T00:27:44;9.40;99.90
5972;DHT22;3012;49.944;8.454;2024-02-15T00:30:13;10.10;99.90
5972;DHT22;3012;49.944;8.454;2024-02-15T00:32:43;9.90;99.90
5972;DHT22;3012;49.944;8.454;2024-02-15T00:35:16;9.80;99.90
5972;DHT22;3012;49.944;8.454;2024-02-15T00:37:45;10.10;99.90
5972;DHT22;3012;49.944;8.454;2024-02-15T00:40:14;9.30;99.90
5972;DHT22;3012;49.944;8.454;2024-02-15T00:42:42;10.20;99.90
5972;DHT22;3012;49.944;8.454;2024-02-15T00:45:10;10.10;99.90
5972;DHT22;3012;49.944;8.454;2024-02-15T00:47:39;9.20;99.90
5972;DHT22;3012;49.944;8.454;2024-02-15T00:50:09;9.90;99.90
5972;DHT22;3012;49.944;8.454;2024-02-15T00:52:39;9.70;99.90
5972;DHT22;3012;49.944;8.454;2024-02-15T00:55:07;9.90;99.90
5972;DHT22;3012;49.944;8.454;2024-02-15T00:57:35;10.20;99.90
5972;DHT22;3012;49.944;8.454;2024-02-15T01:00:04;9.70;99.90
5972;DHT22;3012;49.944;8.454;2024-02-15T01:02:33;10.20;99.90
5972;DHT22;3012;49.944;8.454;2024-02-15T01:05:03;9.60;99.90
5972;DHT22;3012;49.944;8.454;2024-02-15T01:07:31;9.60;99.90
5972;DHT22;3012;49.944;8.454;2024-02-15T01:10:01;9.90;99.90
5972;DHT22;3012;49.944;8.454;2024-02-15T01:12:30;10.00;99.90
5972;DHT22;3012;49.944;8.454;2024-02-15T01:14:58;9.70;99.90
5972;DHT22;3012;49.944;8.454;2024-02-15T01:17:26;10.20;99.90
5972;DHT22;3012;49.944;8.454;2024-02-15T01:19:54;10.00;99.90
5972;DHT22;3012;49.944;8.454;2024-02-15T01:22:23;10.10;99.90
5972;DHT22;3012;49.944;8.454;2024-02-15T01:24:53;9.80;99.90
5972;DHT22;3012;49.944;8.454;2024-02-15T01:27:24;10.10;99.90
5972;DHT22;3012;49.944;8.454;2024-02-15T01:29:56;9.80;99.90
5972;DHT22;3012;49.944;8.454;2024-02-15T01:32:25;9.80;99.90
5972;DHT22;3012;49.944;8.454;2024-02-15T01:34:53;10.10;99.90
5972;DHT22;3012;49.944;8.454;2024-02-15T01:37:22;9.80;99.90
5972;DHT22;3012;49.944;8.454;2024-02-15T01:39:51;10.20;99.90
5972;DHT22;3012;49.944;8.454;2024-02-15T01:42:20;10.20;99.90
5972;DHT22;3012;49.944;8.454;2024-02-15T01:44:49;10.20;99.90
5972;DHT22;3012;49.944;8.454;2024-02-15T01:47:21;9.70;99.90
5972;DHT22;3012;49.944;8.454;2024-02-15T01:49:51;9.20;99.90
5972;DHT22;3012;49.944;8.454;2024-02-15T01:52:21;10.00;99.90
5972;DHT22;3012;49.944;8.454;2024-02-15T01:54:51;10.10;99.90
5972;DHT22;3012;49.944;8.454;2024-02-15T01:57:21;10.20;99.90
5972;DHT22;3012;49.944;8.454;2024-02-15T01:59:51;10.20;99.90
5972;DHT22;3012;49.944;8.454;2024-02-15T02:02:20;9.90;99.90
5972;DHT22;3012;49.944;8.454;2024-02-15T02:04:50;10.00;99.90
5972;DHT22;3012;49.944;8.454;2024-02-15T02:07:18;9.80;99.90
5972;DHT22;3012;49.944;8.454;2024-02-15T02:09:46;10.20;99.90
5972;DHT22;3012;49.944;8.454;2024-02-15T02:12:16;10.20;99.90
5972;DHT22;3012;49.944;8.454;2024-02-15T02:14:45;10.00;99.90
5972;DHT22;3012;49.944;8.454;2024-02-15T02:17:14;10.20;99.90
5972;DHT22;3012;49.944;8.454;2024-02-15T02:19:42;9.80;99.90
5972;DHT22;3012;49.944;8.454;2024-02-15T02:22:11;9.80;99.90
5972;DHT22;3012;49.944;8.454;2024-02-15T02:24:54;10.10;99.90
5972;DHT22;3012;49.944;8.454;2024-02-15T02:27:24;9.70;99.90
5972;DHT22;3012;49.944;8.454;2024-02-15T02:29:52;10.10;99.90
5972;DHT22;3012;49.944;8.454;2024-02-15T02:32:22;10.20;99.90
5972;DHT22;3012;49.944;8.454;2024-02-15T02:34:50;10.10;99.90
5972;DHT22;3012;49.944;8.454;2024-02-15T02:37:21;10.00;99.90
5972;DHT22;3012;49.944;8.454;2024-02-15T02:39:50;10.20;99.90
5972;DHT22;3012;49.944;8.454;2024-02-15T02:42:20;10.20;99.90
5972;DHT22;3012;49.944;8.454;2024-02-15T02:44:50;10.20;99.90
5972;DHT22;3012;49.944;8.454;2024-02-15T02:47:18;10.10;99.90
5972;DHT22;3012;49.944;8.454;2024-02-15T02:49:46;9.80;99.90
5972;DHT22;3012;49.944;8.454;2024-02-15T02:52:14;10.40;99.90
5972;DHT22;3012;49.944;8.454;2024-02-15T02:54:43;10.10;99.90
5972;DHT22;3012;49.944;8.454;2024-02-15T02:57:11;9.90;99.90
5972;DHT22;3012;49.944;8.454;2024-02-15T02:59:41;10.00;99.90
5972;DHT22;3012;49.944;8.454;2024-02-15T03:02:10;9.90;99.90
5972;DHT22;3012;49.944;8.454;2024-02-15T03:04:38;10.20;99.90
5972;DHT22;3012;49.944;8.454;2024-02-15T03:07:07;10.30;99.90
5972;DHT22;3012;49.944;8.454;2024-02-15T03:09:35;10.00;99.90
5972;DHT22;3012;49.944;8.454;2024-02-15T03:12:05;10.20;99.90
5972;DHT22;3012;49.944;8.454;2024-02-15T03:14:33;10.30;99.90
5972;DHT22;3012;49.944;8.454;2024-02-15T03:17:03;10.10;99.90
5972;DHT22;3012;49.944;8.454;2024-02-15T03:19:33;9.70;99.90
5972;DHT22;3012;49.944;8.454;2024-02-15T03:22:01;10.00;99.90
5972;DHT22;3012;49.944;8.454;2024-02-15T03:24:29;10.10;99.90
5972;DHT22;3012;49.944;8.454;2024-02-15T03:26:57;10.00;99.90
5972;DHT22;3012;49.944;8.454;2024-02-15T03:29:25;10.00;99.90
5972;DHT22;3012;49.944;8.454;2024-02-15T03:31:54;10.20;99.90
5972;DHT22;3012;49.944;8.454;2024-02-15T03:34:25;10.00;99.90
5972;DHT22;3012;49.944;8.454;2024-02-15T03:36:53;10.10;99.90
5972;DHT22;3012;49.944;8.454;2024-02-15T03:39:22;10.20;99.90
5972;DHT22;3012;49.944;8.454;2024-02-15T03:41:50;10.20;99.90
5972;DHT22;3012;49.944;8.454;2024-02-15T03:44:20;9.80;99.90
5972;DHT22;3012;49.944;8.454;2024-02-15T03:46:48;10.20;99.90
5972;DHT22;3012;49.944;8.454;2024-02-15T03:49:20;10.20;99.90
5972;DHT22;3012;49.944;8.454;2024-02-15T03:51:51;10.00;99.90
5972;DHT22;3012;49.944;8.454;2024-02-15T03:54:22;9.90;99.90
5972;DHT22;3012;49.944;8.454;2024-02-15T03:56:50;9.70;99.90
5972;DHT22;3012;49.944;8.454;2024-02-15T03:59:20;10.10;99.90
5972;DHT22;3012;49.944;8.454;2024-02-15T04:01:52;10.20;99.90
5972;DHT22;3012;49.944;8.454;2024-02-15T04:04:20;10.30;99.90
5972;DHT22;3012;49.944;8.454;2024-02-15T04:06:50;10.00;99.90
5972;DHT22;3012;49.944;8.454;2024-02-15T04:09:19;10.10;99.90
5972;DHT22;3012;49.944;8.454;2024-02-15T04:11:48;10.00;99.90
5972;DHT22;3012;49.944;8.454;2024-02-15T04:14:20;10.10;99.90
5972;DHT22;3012;49.944;8.454;2024-02-15T04:16:50;9.60;99.90
5972;DHT22;3012;49.944;8.454;2024-02-15T04:19:18;10.20;99.90
5972;DHT22;3012;49.944;8.454;2024-02-15T04:21:47;10.10;99.90
5972;DHT22;3012;49.944;8.454;2024-02-15T04:24:17;9.90;99.90
5972;DHT22;3012;49.944;8.454;2024-02-15T04:26:48;10.00;99.90
5972;DHT22;3012;49.944;8.454;2024-02-15T04:29:16;10.10;99.90
5972;DHT22;3012;49.944;8.454;2024-02-15T04:31:47;9.90;99.90
5972;DHT22;3012;49.944;8.454;2024-02-15T04:34:16;9.60;99.90
5972;DHT22;3012;49.944;8.454;2024-02-15T04:36:46;10.20;99.90
5972;DHT22;3012;49.944;8.454;2024-02-15T04:39:18;10.20;99.90
5972;DHT22;3012;49.944;8.454;2024-02-15T04:41:51;10.00;99.90
5972;DHT22;3012;49.944;8.454;2024-02-15T04:44:21;10.20;99.90
5972;DHT22;3012;49.944;8.454;2024-02-15T04:46:54;10.00;99.90
5972;DHT22;3012;49.944;8.454;2024-02-15T04:49:24;10.30;99.90
5972;DHT22;3012;49.944;8.454;2024-02-15T04:51:53;10.20;99.90
5972;DHT22;3012;49.944;8.454;2024-02-15T04:54:22;10.00;99.90
5972;DHT22;3012;49.944;8.454;2024-02-15T04:56:50;10.20;99.90
5972;DHT22;3012;49.944;8.454;2024-02-15T04:59:21;10.30;99.90
5972;DHT22;3012;49.944;8.454;2024-02-15T05:01:52;10.10;99.90
5972;DHT22;3012;49.944;8.454;2024-02-15T05:04:21;10.20;99.90
5972;DHT22;3012;49.944;8.454;2024-02-15T05:06:51;10.00;99.90
5972;DHT22;3012;49.944;8.454;2024-02-15T05:09:21;9.90;99.90
5972;DHT22;3012;49.944;8.454;2024-02-15T05:11:49;10.00;99.90
5972;DHT22;3012;49.944;8.454;2024-02-15T05:14:19;9.90;99.90
5972;DHT22;3012;49.944;8.454;2024-02-15T05:16:52;10.20;99.90
5972;DHT22;3012;49.944;8.454;2024-02-15T05:19:20;10.00;99.90
5972;DHT22;3012;49.944;8.454;2024-02-15T05:21:49;10.20;99.90
5972;DHT22;3012;49.944;8.454;2024-02-15T05:24:17;9.90;99.90
5972;DHT22;3012;49.944;8.454;2024-02-15T05:26:48;10.20;99.90
5972;DHT22;3012;49.944;8.454;2024-02-15T05:29:17;10.00;99.90
5972;DHT22;3012;49.944;8.454;2024-02-15T05:31:47;10.10;99.90
5972;DHT22;3012;49.944;8.454;2024-02-15T05:34:18;9.60;99.90
5972;DHT22;3012;49.944;8.454;2024-02-15T05:36:48;10.00;99.90
5972;DHT22;3012;49.944;8.454;2024-02-15T05:39:16;9.60;99.90
5972;DHT22;3012;49.944;8.454;2024-02-15T05:41:49;10.00;99.90
5972;DHT22;3012;49.944;8.454;2024-02-15T05:44:18;9.90;99.90
5972;DHT22;3012;49.944;8.454;2024-02-15T05:46:48;10.10;99.90
5972;DHT22;3012;49.944;8.454;2024-02-15T05:49:16;10.10;99.90
5972;DHT22;3012;49.944;8.454;2024-02-15T05:51:45;10.30;99.90
5972;DHT22;3012;49.944;8.454;2024-02-15T05:54:15;10.40;99.90
5972;DHT22;3012;49.944;8.454;2024-02-15T05:56:44;10.20;99.90
5972;DHT22;3012;49.944;8.454;2024-02-15T05:59:20;10.00;99.90
5972;DHT22;3012;49.944;8.454;2024-02-15T06:01:48;10.30;99.90
5972;DHT22;3012;49.944;8.454;2024-02-15T06:04:16;10.00;99.90
5972;DHT22;3012;49.944;8.454;2024-02-15T06:06:44;10.20;99.90
5972;DHT22;3012;49.944;8.454;2024-02-15T06:09:16;10.30;99.90
5972;DHT22;3012;49.944;8.454;2024-02-15T06:11:48;10.00;99.90
5972;DHT22;3012;49.944;8.454;2024-02-15T06:14:21;10.20;99.90
5972;DHT22;3012;49.944;8.454;2024-02-15T06:16:49;10.10;99.90
5972;DHT22;3012;49.944;8.454;2024-02-15T06:19:19;10.10;99.90
5972;DHT22;3012;49.944;8.454;2024-02-15T06:21:47;10.20;99.90
5972;DHT22;3012;49.944;8.454;2024-02-15T06:24:16;10.10;99.90
5972;DHT22;3012;49.944;8.454;2024-02-15T06:26:44;10.10;99.90
5972;DHT22;3012;49.944;8.454;2024-02-15T06:29:14;9.80;99.90
5972;DHT22;3012;49.944;8.454;2024-02-15T06:32:13;10.10;99.90
5972;DHT22;3012;49.944;8.454;2024-02-15T06:34:58;10.10;99.90
5972;DHT22;3012;49.944;8.454;2024-02-15T06:37:43;10.00;99.90
5972;DHT22;3012;49.944;8.454;2024-02-15T06:40:29;10.20;99.90
5972;DHT22;3012;49.944;8.454;2024-02-15T06:42:57;9.90;99.90
5972;DHT22;3012;49.944;8.454;2024-02-15T06:45:26;10.30;99.90
5972;DHT22;3012;49.944;8.454;2024-02-15T06:47:56;10.20;99.90
5972;DHT22;3012;49.944;8.454;2024-02-15T06:50:25;10.20;99.90
5972;DHT22;3012;49.944;8.454;2024-02-15T06:52:53;9.80;99.90
5972;DHT22;3012;49.944;8.454;2024-02-15T06:55:21;10.10;99.90
5972;DHT22;3012;49.944;8.454;2024-02-15T06:57:50;10.30;99.90
5972;DHT22;3012;49.944;8.454;2024-02-15T07:00:18;10.20;99.90
5972;DHT22;3012;49.944;8.454;2024-02-15T07:02:46;10.10;99.90
5972;DHT22;3012;49.944;8.454;2024-02-15T07:05:17;10.20;99.90
5972;DHT22;3012;49.944;8.454;2024-02-15T07:07:45;9.90;99.90
5972;DHT22;3012;49.944;8.454;2024-02-15T07:10:13;10.30;99.90
5972;DHT22;3012;49.944;8.454;2024-02-15T07:12:43;10.10;99.90
5972;DHT22;3012;49.944;8.454;2024-02-15T07:15:12;9.90;99.90
5972;DHT22;3012;49.944;8.454;2024-02-15T07:17:40;10.40;99.90
5972;DHT22;3012;49.944;8.454;2024-02-15T07:20:11;10.30;99.90
5972;DHT22;3012;49.944;8.454;2024-02-15T07:22:45;10.40;99.90
5972;DHT22;3012;49.944;8.454;2024-02-15T07:25:13;10.60;99.90
5972;DHT22;3012;49.944;8.454;2024-02-15T07:27:42;10.50;99.90
5972;DHT22;3012;49.944;8.454;2024-02-15T07:30:11;10.40;99.90
5972;DHT22;3012;49.944;8.454;2024-02-15T07:32:40;10.50;99.90
5972;DHT22;3012;49.944;8.454;2024-02-15T07:35:08;10.40;99.90
5972;DHT22;3012;49.944;8.454;2024-02-15T07:37:39;10.40;99.90
5972;DHT22;3012;49.944;8.454;2024-02-15T07:40:19;10.80;99.90
5972;DHT22;3012;49.944;8.454;2024-02-15T07:42:48;10.80;99.90
5972;DHT22;3012;49.944;8.454;2024-02-15T07:45:18;10.80;99.90
5972;DHT22;3012;49.944;8.454;2024-02-15T07:47:46;10.80;99.90
5972;DHT22;3012;49.944;8.454;2024-02-15T07:50:17;10.50;99.90
5972;DHT22;3012;49.944;8.454;2024-02-15T07:52:50;11.00;99.90
5972;DHT22;3012;49.944;8.454;2024-02-15T07:55:19;10.90;99.90
5972;DHT22;3012;49.944;8.454;2024-02-15T07:57:47;10.90;99.90
5972;DHT22;3012;49.944;8.454;2024-02-15T08:00:16;11.10;99.90
5972;DHT22;3012;49.944;8.454;2024-02-15T08:02:44;11.20;99.90
5972;DHT22;3012;49.944;8.454;2024-02-15T08:05:13;10.40;99.90
5972;DHT22;3012;49.944;8.454;2024-02-15T08:07:43;11.00;99.90
5972;DHT22;3012;49.944;8.454;2024-02-15T08:10:12;11.10;99.90
5972;DHT22;3012;49.944;8.454;2024-02-15T08:12:43;10.90;99.90
5972;DHT22;3012;49.944;8.454;2024-02-15T08:15:11;10.80;99.90
5972;DHT22;3012;49.944;8.454;2024-02-15T08:17:41;11.30;99.90
5972;DHT22;3012;49.944;8.454;2024-02-15T08:20:10;11.20;99.90
5972;DHT22;3012;49.944;8.454;2024-02-15T08:22:39;11.10;99.90
5972;DHT22;3012;49.944;8.454;2024-02-15T08:25:08;11.50;99.90
5972;DHT22;3012;49.944;8.454;2024-02-15T08:27:38;11.50;99.90
5972;DHT22;3012;49.944;8.454;2024-02-15T08:30:13;11.50;99.90
5972;DHT22;3012;49.944;8.454;2024-02-15T08:32:42;11.50;99.90
5972;DHT22;3012;49.944;8.454;2024-02-15T08:35:12;11.40;99.90
5972;DHT22;3012;49.944;8.454;2024-02-15T08:37:41;11.70;99.90
5972;DHT22;3012;49.944;8.454;2024-02-15T08:40:11;11.40;99.90
5972;DHT22;3012;49.944;8.454;2024-02-15T08:42:42;11.70;99.90
5972;DHT22;3012;49.944;8.454;2024-02-15T08:45:11;10.90;99.90
5972;DHT22;3012;49.944;8.454;2024-02-15T08:47:41;11.50;99.90
5972;DHT22;3012;49.944;8.454;2024-02-15T08:50:10;11.80;99.90
5972;DHT22;3012;49.944;8.454;2024-02-15T08:52:39;11.80;99.90
5972;DHT22;3012;49.944;8.454;2024-02-15T08:55:09;11.60;99.90
5972;DHT22;3012;49.944;8.454;2024-02-15T08:57:37;11.90;99.90
5972;DHT22;3012;49.944;8.454;2024-02-15T09:00:08;11.90;99.90
5972;DHT22;3012;49.944;8.454;2024-02-15T09:02:42;11.90;99.90
5972;DHT22;3012;49.944;8.454;2024-02-15T09:05:10;11.90;99.90
5972;DHT22;3012;49.944;8.454;2024-02-15T09:07:41;11.90;99.90
5972;DHT22;3012;49.944;8.454;2024-02-15T09:10:10;12.00;99.90
5972;DHT22;3012;49.944;8.454;2024-02-15T09:12:39;12.20;99.90
5972;DHT22;3012;49.944;8.454;2024-02-15T09:15:09;12.20;99.90
5972;DHT22;3012;49.944;8.454;2024-02-15T09:17:37;12.10;99.90
5972;DHT22;3012;49.944;8.454;2024-02-15T09:20:09;12.20;99.90
5972;DHT22;3012;49.944;8.454;2024-02-15T09:22:42;12.20;99.90
5972;DHT22;3012;49.944;8.454;2024-02-15T09:25:11;11.80;99.90
5972;DHT22;3012;49.944;8.454;2024-02-15T09:27:40;12.40;99.90
5972;DHT22;3012;49.944;8.454;2024-02-15T09:30:08;12.50;99.90
5972;DHT22;3012;49.944;8.454;2024-02-15T09:32:37;12.60;99.90
5972;DHT22;3012;49.944;8.454;2024-02-15T09:35:08;12.60;99.90
5972;DHT22;3012;49.944;8.454;2024-02-15T09:37:43;13.20;99.90
5972;DHT22;3012;49.944;8.454;2024-02-15T09:40:12;13.00;99.90
5972;DHT22;3012;49.944;8.454;2024-02-15T09:42:42;13.10;99.90
5972;DHT22;3012;49.944;8.454;2024-02-15T09:45:12;12.50;99.90
5972;DHT22;3012;49.944;8.454;2024-02-15T09:47:42;13.00;99.90
5972;DHT22;3012;49.944;8.454;2024-02-15T09:50:13;13.00;99.90
5972;DHT22;3012;49.944;8.454;2024-02-15T09:52:44;13.00;99.90
5972;DHT22;3012;49.944;8.454;2024-02-15T09:55:13;13.10;99.90
5972;DHT22;3012;49.944;8.454;2024-02-15T09:57:42;13.30;99.90
5972;DHT22;3012;49.944;8.454;2024-02-15T10:00:11;13.70;99.90
5972;DHT22;3012;49.944;8.454;2024-02-15T10:02:42;13.60;99.90
5972;DHT22;3012;49.944;8.454;2024-02-15T10:05:13;13.80;99.90
5972;DHT22;3012;49.944;8.454;2024-02-15T10:07:41;14.10;99.90
5972;DHT22;3012;49.944;8.454;2024-02-15T10:10:15;14.30;99.90
5972;DHT22;3012;49.944;8.454;2024-02-15T10:12:44;14.50;99.90
5972;DHT22;3012;49.944;8.454;2024-02-15T10:15:28;14.70;99.90
5972;DHT22;3012;49.944;8.454;2024-02-15T10:18:00;14.50;99.90
5972;DHT22;3012;49.944;8.454;2024-02-15T10:20:30;14.70;99.90
5972;DHT22;3012;49.944;8.454;2024-02-15T10:23:10;14.80;99.90
5972;DHT22;3012;49.944;8.454;2024-02-15T10:25:39;15.20;99.90
5972;DHT22;3012;49.944;8.454;2024-02-15T10:28:08;15.30;99.90
5972;DHT22;3012;49.944;8.454;2024-02-15T10:30:38;15.80;99.90
5972;DHT22;3012;49.944;8.454;2024-02-15T10:33:06;15.40;99.90
5972;DHT22;3012;49.944;8.454;2024-02-15T10:35:37;16.10;99.90
5972;DHT22;3012;49.944;8.454;2024-02-15T10:38:06;16.50;99.90
5972;DHT22;3012;49.944;8.454;2024-02-15T10:40:36;16.60;99.90
5972;DHT22;3012;49.944;8.454;2024-02-15T10:43:05;16.80;99.90
5972;DHT22;3012;49.944;8.454;2024-02-15T10:45:35;16.90;99.90
5972;DHT22;3012;49.944;8.454;2024-02-15T10:48:08;16.90;99.90
5972;DHT22;3012;49.944;8.454;2024-02-15T10:50:39;17.90;99.90
5972;DHT22;3012;49.944;8.454;2024-02-15T10:53:23;18.00;99.90
5972;DHT22;3012;49.944;8.454;2024-02-15T10:55:59;18.50;99.90
5972;DHT22;3012;49.944;8.454;2024-02-15T10:58:33;18.40;99.90
5972;DHT22;3012;49.944;8.454;2024-02-15T11:01:10;18.60;99.90
5972;DHT22;3012;49.944;8.454;2024-02-15T11:03:44;17.70;99.90
5972;DHT22;3012;49.944;8.454;2024-02-15T11:06:20;18.10;99.90
5972;DHT22;3012;49.944;8.454;2024-02-15T11:08:49;18.20;99.90
5972;DHT22;3012;49.944;8.454;2024-02-15T11:11:18;17.70;99.90
5972;DHT22;3012;49.944;8.454;2024-02-15T11:13:47;17.60;99.90
5972;DHT22;3012;49.944;8.454;2024-02-15T11:16:39;17.30;99.90
5972;DHT22;3012;49.944;8.454;2024-02-15T11:19:07;16.60;99.90
5972;DHT22;3012;49.944;8.454;2024-02-15T11:21:56;16.30;99.90
5972;DHT22;3012;49.944;8.454;2024-02-15T11:24:25;16.60;99.90
5972;DHT22;3012;49.944;8.454;2024-02-15T11:26:58;17.10;99.90
5972;DHT22;3012;49.944;8.454;2024-02-15T11:29:48;17.50;99.90
5972;DHT22;3012;49.944;8.454;2024-02-15T11:32:37;17.40;99.90
5972;DHT22;3012;49.944;8.454;2024-02-15T11:35:07;17.10;99.90
5972;DHT22;3012;49.944;8.454;2024-02-15T11:37:56;17.00;99.90
5972;DHT22;3012;49.944;8.454;2024-02-15T11:40:29;17.20;99.90
5972;DHT22;3012;49.944;8.454;2024-02-15T11:43:44;17.30;99.90
5972;DHT22;3012;49.944;8.454;2024-02-15T11:46:17;17.40;99.90
5972;DHT22;3012;49.944;8.454;2024-02-15T11:48:46;16.70;99.90
5972;DHT22;3012;49.944;8.454;2024-02-15T11:51:28;16.40;99.90
5972;DHT22;3012;49.944;8.454;2024-02-15T11:54:03;17.40;99.90
5972;DHT22;3012;49.944;8.454;2024-02-15T11:56:54;17.40;99.90
5972;DHT22;3012;49.944;8.454;2024-02-15T11:59:41;18.20;99.90
5972;DHT22;3012;49.944;8.454;2024-02-15T12:02:42;18.30;99.90
5972;DHT22;3012;49.944;8.454;2024-02-15T12:05:27;17.90;99.90
5972;DHT22;3012;49.944;8.454;2024-02-15T12:08:13;18.00;99.90
5972;DHT22;3012;49.944;8.454;2024-02-15T12:11:00;18.00;99.90
5972;DHT22;3012;49.944;8.454;2024-02-15T12:13:50;18.00;99.90
5972;DHT22;3012;49.944;8.454;2024-02-15T12:16:36;17.70;99.90
5972;DHT22;3012;49.944;8.454;2024-02-15T12:19:21;17.50;99.90
5972;DHT22;3012;49.944;8.454;2024-02-15T12:21:50;17.60;99.90
5972;DHT22;3012;49.944;8.454;2024-02-15T12:24:19;17.50;99.90
5972;DHT22;3012;49.944;8.454;2024-02-15T12:26:49;17.60;99.90
5972;DHT22;3012;49.944;8.454;2024-02-15T12:29:18;18.30;99.90
5972;DHT22;3012;49.944;8.454;2024-02-15T12:31:46;18.60;99.90
5972;DHT22;3012;49.944;8.454;2024-02-15T12:34:20;18.30;99.90
5972;DHT22;3012;49.944;8.454;2024-02-15T12:36:48;18.30;99.90
5972;DHT22;3012;49.944;8.454;2024-02-15T12:39:24;17.80;99.90
5972;DHT22;3012;49.944;8.454;2024-02-15T12:41:56;17.90;99.90
5972;DHT22;3012;49.944;8.454;2024-02-15T12:44:24;18.00;99.90
5972;DHT22;3012;49.944;8.454;2024-02-15T12:46:57;18.00;99.90
5972;DHT22;3012;49.944;8.454;2024-02-15T12:49:30;18.00;99.90
5972;DHT22;3012;49.944;8.454;2024-02-15T12:52:34;17.90;99.90
5972;DHT22;3012;49.944;8.454;2024-02-15T12:55:13;18.20;99.90
5972;DHT22;3012;49.944;8.454;2024-02-15T12:57:45;18.20;99.90
5972;DHT22;3012;49.944;8.454;2024-02-15T13:00:17;17.90;99.90
5972;DHT22;3012;49.944;8.454;2024-02-15T13:02:46;18.00;99.90
5972;DHT22;3012;49.944;8.454;2024-02-15T13:05:16;18.10;99.90
5972;DHT22;3012;49.944;8.454;2024-02-15T13:07:46;17.60;99.90
5972;DHT22;3012;49.944;8.454;2024-02-15T13:10:14;17.30;99.90
5972;DHT22;3012;49.944;8.454;2024-02-15T13:12:45;17.30;99.90
5972;DHT22;3012;49.944;8.454;2024-02-15T13:15:14;17.00;99.90
5972;DHT22;3012;49.944;8.454;2024-02-15T13:17:45;16.50;99.90
5972;DHT22;3012;49.944;8.454;2024-02-15T13:20:13;16.30;99.90
5972;DHT22;3012;49.944;8.454;2024-02-15T13:22:42;16.50;99.90
5972;DHT22;3012;49.944;8.454;2024-02-15T13:25:11;15.80;99.90
5972;DHT22;3012;49.944;8.454;2024-02-15T13:27:40;16.60;99.90
5972;DHT22;3012;49.944;8.454;2024-02-15T13:30:10;16.20;99.90
5972;DHT22;3012;49.944;8.454;2024-02-15T13:32:40;16.10;99.90
5972;DHT22;3012;49.944;8.454;2024-02-15T13:35:09;16.10;99.90
5972;DHT22;3012;49.944;8.454;2024-02-15T13:37:41;16.00;99.90
5972;DHT22;3012;49.944;8.454;2024-02-15T13:40:16;16.00;99.90
5972;DHT22;3012;49.944;8.454;2024-02-15T13:42:44;16.00;99.90
5972;DHT22;3012;49.944;8.454;2024-02-15T13:45:17;15.80;99.90
5972;DHT22;3012;49.944;8.454;2024-02-15T13:47:47;15.80;99.90
5972;DHT22;3012;49.944;8.454;2024-02-15T13:50:15;15.50;99.90
5972;DHT22;3012;49.944;8.454;2024-02-15T13:52:44;15.80;99.90
5972;DHT22;3012;49.944;8.454;2024-02-15T13:55:14;15.60;99.90
5972;DHT22;3012;49.944;8.454;2024-02-15T13:57:44;15.70;99.90
5972;DHT22;3012;49.944;8.454;2024-02-15T14:00:14;15.40;99.90
5972;DHT22;3012;49.944;8.454;2024-02-15T14:02:50;15.70;99.90
5972;DHT22;3012;49.944;8.454;2024-02-15T14:05:22;15.80;99.90
5972;DHT22;3012;49.944;8.454;2024-02-15T14:07:54;15.70;99.90
5972;DHT22;3012;49.944;8.454;2024-02-15T14:10:22;15.80;99.90
5972;DHT22;3012;49.944;8.454;2024-02-15T14:12:52;15.90;99.90
5972;DHT22;3012;49.944;8.454;2024-02-15T14:15:23;15.60;99.90
5972;DHT22;3012;49.944;8.454;2024-02-15T14:17:54;15.80;99.90
5972;DHT22;3012;49.944;8.454;2024-02-15T14:20:23;15.60;99.90
5972;DHT22;3012;49.944;8.454;2024-02-15T14:22:51;15.60;99.90
5972;DHT22;3012;49.944;8.454;2024-02-15T14:25:23;15.50;99.90
5972;DHT22;3012;49.944;8.454;2024-02-15T14:27:54;15.60;99.90
5972;DHT22;3012;49.944;8.454;2024-02-15T14:30:22;15.50;99.90
5972;DHT22;3012;49.944;8.454;2024-02-15T14:33:10;15.50;99.90
5972;DHT22;3012;49.944;8.454;2024-02-15T14:35:48;15.20;99.90
5972;DHT22;3012;49.944;8.454;2024-02-15T14:38:20;15.20;99.90
5972;DHT22;3012;49.944;8.454;2024-02-15T14:40:49;15.20;99.90
5972;DHT22;3012;49.944;8.454;2024-02-15T14:43:21;15.20;99.90
5972;DHT22;3012;49.944;8.454;2024-02-15T14:45:49;14.80;99.90
5972;DHT22;3012;49.944;8.454;2024-02-15T14:48:19;15.10;99.90
5972;DHT22;3012;49.944;8.454;2024-02-15T14:50:48;14.60;99.90
5972;DHT22;3012;49.944;8.454;2024-02-15T14:53:18;15.00;99.90
5972;DHT22;3012;49.944;8.454;2024-02-15T14:55:46;15.20;99.90
5972;DHT22;3012;49.944;8.454;2024-02-15T14:58:15;14.90;99.90
5972;DHT22;3012;49.944;8.454;2024-02-15T15:00:46;14.90;99.90
5972;DHT22;3012;49.944;8.454;2024-02-15T15:03:15;14.90;99.90
5972;DHT22;3012;49.944;8.454;2024-02-15T15:05:45;14.70;99.90
5972;DHT22;3012;49.944;8.454;2024-02-15T15:08:31;14.80;99.90
5972;DHT22;3012;49.944;8.454;2024-02-15T15:11:17;14.50;99.90
5972;DHT22;3012;49.944;8.454;2024-02-15T15:14:03;14.40;99.90
5972;DHT22;3012;49.944;8.454;2024-02-15T15:16:33;14.80;99.90
5972;DHT22;3012;49.944;8.454;2024-02-15T15:19:01;14.80;99.90
5972;DHT22;3012;49.944;8.454;2024-02-15T15:21:32;14.60;99.90
5972;DHT22;3012;49.944;8.454;2024-02-15T15:24:00;14.10;99.90
5972;DHT22;3012;49.944;8.454;2024-02-15T15:26:28;14.60;99.90
5972;DHT22;3012;49.944;8.454;2024-02-15T15:28:58;14.40;99.90
5972;DHT22;3012;49.944;8.454;2024-02-15T15:31:27;14.40;99.90
5972;DHT22;3012;49.944;8.454;2024-02-15T15:33:56;14.40;99.90
5972;DHT22;3012;49.944;8.454;2024-02-15T15:36:25;14.30;99.90
5972;DHT22;3012;49.944;8.454;2024-02-15T15:38:55;14.40;99.90
5972;DHT22;3012;49.944;8.454;2024-02-15T15:41:24;14.20;99.90
5972;DHT22;3012;49.944;8.454;2024-02-15T15:43:54;14.30;99.90
5972;DHT22;3012;49.944;8.454;2024-02-15T15:46:22;14.40;99.90
5972;DHT22;3012;49.944;8.454;2024-02-15T15:48:50;14.20;99.90
5972;DHT22;3012;49.944;8.454;2024-02-15T15:51:19;14.20;99.90
5972;DHT22;3012;49.944;8.454;2024-02-15T15:53:48;14.00;99.90
5972;DHT22;3012;49.944;8.454;2024-02-15T15:56:19;14.00;99.90
5972;DHT22;3012;49.944;8.454;2024-02-15T15:58:48;14.10;99.90
5972;DHT22;3012;49.944;8.454;2024-02-15T16:01:19;14.10;99.90
5972;DHT22;3012;49.944;8.454;2024-02-15T16:03:48;13.80;99.90
5972;DHT22;3012;49.944;8.454;2024-02-15T16:06:17;13.80;99.90
5972;DHT22;3012;49.944;8.454;2024-02-15T16:08:52;13.40;99.90
5972;DHT22;3012;49.944;8.454;2024-02-15T16:11:23;13.10;99.90
5972;DHT22;3012;49.944;8.454;2024-02-15T16:13:51;13.40;99.90
5972;DHT22;3012;49.944;8.454;2024-02-15T16:16:22;13.90;99.90
5972;DHT22;3012;49.944;8.454;2024-02-15T16:18:50;13.30;99.90
5972;DHT22;3012;49.944;8.454;2024-02-15T16:21:18;13.60;99.90
5972;DHT22;3012;49.944;8.454;2024-02-15T16:23:47;12.90;99.90
5972;DHT22;3012;49.944;8.454;2024-02-15T16:26:16;13.20;99.90
5972;DHT22;3012;49.944;8.454;2024-02-15T16:28:45;13.40;99.90